Time;durP1;ratioP1;P1;durP2;ratioP2;P2;SDS_P1;SDS_P2;PMS_P1;PMS_P2;Temp;Humidity;BMP_temperature;BMP_pressure;BME280_temperature;BME280_humidity;BME280_pressure;Samples;Min_cycle;Max_cycle;Signal;HPM_P1;HPM_P2
2023/02/01 00:01:32;;;;;;;19.77;9.50;;;;;;;2.14;68.64;99570.78;4973261;28;20026;-68
2023/02/01 00:03:58;;;;;;;18.33;10.45;;;;;;;1.93;69.45;99570.78;4981178;28;20473;-68
2023/02/01 00:06:23;;;;;;;18.30;8.90;;;;;;;1.91;69.92;99572.97;4993977;28;20381;-68
2023/02/01 00:08:53;;;;;;;12.23;7.55;;;;;;;1.79;70.61;99570.47;4993715;28;20169;-68
2023/02/01 00:11:18;;;;;;;10.98;7.18;;;;;;;1.63;71.35;99566.06;4988266;28;20023;-68
2023/02/01 00:13:43;;;;;;;7.32;6.00;;;;;;;1.61;70.97;99568.25;4978207;28;20560;-69
2023/02/01 00:16:13;;;;;;;9.27;5.28;;;;;;;1.66;71.19;99571.84;4983304;28;20130;-68
2023/02/01 00:18:38;;;;;;;9.18;5.22;;;;;;;1.66;70.83;99582.03;4974286;28;20057;-68
2023/02/01 00:21:04;;;;;;;7.00;5.78;;;;;;;1.62;71.16;99576.25;4974056;28;20038;-69
2023/02/01 00:23:34;;;;;;;7.38;5.35;;;;;;;1.63;70.77;99586.19;4974163;28;20110;-68
2023/02/01 00:26:04;;;;;;;8.63;5.50;;;;;;;1.67;70.64;99589.22;4972813;28;20031;-68
2023/02/01 00:28:30;;;;;;;12.25;6.80;;;;;;;1.67;71.15;99591.97;4973878;28;20121;-68
2023/02/01 00:31:00;;;;;;;14.65;7.22;;;;;;;1.68;70.98;99579.84;4973943;28;20023;-68
2023/02/01 00:33:26;;;;;;;6.10;4.93;;;;;;;1.76;70.79;99592.28;4973949;28;20061;-68
2023/02/01 00:36:00;;;;;;;6.43;4.65;;;;;;;1.72;70.84;99596.66;4972518;28;20109;-69
2023/02/01 00:38:27;;;;;;;7.40;5.13;;;;;;;1.75;70.48;99590.59;4987575;28;20101;-69
2023/02/01 00:40:53;;;;;;;6.47;4.97;;;;;;;1.70;70.31;99583.16;4975046;28;20026;-68
2023/02/01 00:43:19;;;;;;;8.65;5.97;;;;;;;1.63;70.72;99593.63;4973668;28;20081;-68
2023/02/01 00:45:46;;;;;;;9.18;5.63;;;;;;;1.57;70.63;99581.75;4973597;28;20043;-68
2023/02/01 00:48:11;;;;;;;17.05;8.65;;;;;;;1.51;71.43;99585.63;4973558;28;20025;-68
2023/02/01 00:50:44;;;;;;;12.15;7.30;;;;;;;1.19;72.32;99579.16;4985984;28;20481;-68
2023/02/01 00:53:10;;;;;;;7.32;5.15;;;;;;;1.09;73.48;99579.13;4993106;28;20026;-68
2023/02/01 00:55:36;;;;;;;7.70;5.43;;;;;;;0.99;73.77;99579.91;4980998;28;20073;-68
2023/02/01 00:58:01;;;;;;;5.63;4.68;;;;;;;1.04;73.53;99579.94;4972251;28;20031;-68
2023/02/01 01:00:27;;;;;;;10.95;7.45;;;;;;;0.98;73.87;99579.09;4973888;28;20026;-68
2023/02/01 01:02:53;;;;;;;11.43;6.25;;;;;;;0.95;73.74;99574.09;4990432;28;20037;-68
2023/02/01 01:05:18;;;;;;;10.85;6.50;;;;;;;0.98;73.48;99570.81;4993047;28;20437;-68
2023/02/01 01:07:44;;;;;;;17.05;6.70;;;;;;;0.89;73.34;99566.91;4991664;28;20033;-68
2023/02/01 01:10:10;;;;;;;7.88;5.65;;;;;;;0.89;73.53;99566.91;4976595;28;20177;-68
2023/02/01 01:12:36;;;;;;;7.07;5.00;;;;;;;0.80;73.97;99566.59;4987396;28;20089;-68
2023/02/01 01:15:03;;;;;;;10.38;5.03;;;;;;;0.83;74.16;99576.25;4992116;28;20477;-68
2023/02/01 01:17:31;;;;;;;6.68;4.75;;;;;;;0.84;73.50;99569.63;4992454;28;20097;-68
2023/02/01 01:19:56;;;;;;;15.05;5.60;;;;;;;0.80;73.62;99574.03;4991423;28;20513;-68
2023/02/01 01:22:22;;;;;;;6.00;4.85;;;;;;;0.69;74.09;99570.41;4991517;28;20069;-69
2023/02/01 01:24:47;;;;;;;8.15;5.47;;;;;;;0.62;74.30;99567.88;4971960;28;20034;-68
2023/02/01 01:27:12;;;;;;;8.73;6.50;;;;;;;0.59;74.94;99567.59;4973028;28;20029;-68
2023/02/01 01:29:38;;;;;;;6.97;4.90;;;;;;;0.54;74.55;99573.88;4973016;28;20030;-67
2023/02/01 01:32:03;;;;;;;8.10;5.55;;;;;;;0.53;75.30;99574.97;4972962;28;20447;-68
2023/02/01 01:34:29;;;;;;;7.93;5.75;;;;;;;0.36;75.88;99573.22;4990029;28;20519;-68
2023/02/01 01:36:54;;;;;;;8.40;6.50;;;;;;;0.37;75.97;99568.53;4991441;28;20504;-69
2023/02/01 01:39:20;;;;;;;6.95;5.00;;;;;;;0.34;75.91;99575.38;4992160;28;20527;-68
2023/02/01 01:41:45;;;;;;;11.52;6.00;;;;;;;0.44;75.61;99566.41;4982825;28;20074;-68
2023/02/01 01:44:48;;;;;;;7.57;5.20;;;;;;;0.47;75.30;99576.03;4992145;28;20085;-68
2023/02/01 01:47:15;;;;;;;6.03;5.07;;;;;;;0.48;75.20;99574.94;4992140;28;20062;-68
2023/02/01 01:49:42;;;;;;;10.50;5.20;;;;;;;0.48;75.07;99574.94;4990934;28;20034;-68
2023/02/01 01:52:08;;;;;;;6.03;5.25;;;;;;;0.55;74.20;99568.13;4980402;28;20027;-68
2023/02/01 01:54:44;;;;;;;6.78;4.80;;;;;;;0.63;74.01;99564.03;4971962;28;20082;-68
2023/02/01 01:57:22;;;;;;;8.20;4.97;;;;;;;0.65;73.43;99578.34;4972519;28;20106;-68
2023/02/01 02:00:02;;;;;;;7.53;5.75;;;;;;;0.61;73.58;99562.63;4971394;28;20066;-68
2023/02/01 02:02:28;;;;;;;9.98;6.18;;;;;;;0.64;73.41;99560.19;4972184;28;20070;-68
2023/02/01 02:04:53;;;;;;;6.85;4.80;;;;;;;0.51;73.76;99563.41;4971258;28;20065;-69
2023/02/01 02:07:28;;;;;;;6.07;5.18;;;;;;;0.56;73.89;99566.19;4992014;28;20030;-68
2023/02/01 02:09:54;;;;;;;6.13;4.97;;;;;;;0.61;73.15;99560.72;4982231;28;20462;-69
2023/02/01 02:12:19;;;;;;;7.88;5.32;;;;;;;0.46;73.88;99560.59;4972662;28;20041;-69
2023/02/01 02:14:45;;;;;;;8.68;6.00;;;;;;;0.43;73.66;99564.75;4972643;28;20427;-69
2023/02/01 02:17:14;;;;;;;7.55;5.55;;;;;;;0.46;73.37;99566.13;4972382;28;20030;-68
2023/02/01 02:20:09;;;;;;;7.85;5.90;;;;;;;0.54;73.53;99568.38;4972401;28;20029;-68
2023/02/01 02:22:52;;;;;;;7.47;5.70;;;;;;;0.60;73.29;99578.31;4970905;28;20029;-68
2023/02/01 02:25:55;;;;;;;7.60;5.00;;;;;;;0.70;72.85;99572.88;4972088;28;20038;-68
2023/02/01 02:28:41;;;;;;;8.45;5.22;;;;;;;0.79;73.23;99575.13;4976211;28;20059;-68
2023/02/01 02:31:51;;;;;;;6.50;5.03;;;;;;;0.86;72.65;99584.00;4976336;28;20545;-68
2023/02/01 02:34:17;;;;;;;;;;;;;;;0.83;72.70;99587.25;4987038;28;20038;-68
2023/02/01 02:36:57;;;;;;;8.70;5.72;;;;;;;0.77;72.78;99583.63;4995501;28;20009;-68
2023/02/01 02:39:41;;;;;;;;;;;;;;;0.77;72.91;99588.34;4996040;28;20413;-68
2023/02/01 02:48:44;;;;;;;15.10;8.60;;;;;;;1.12;72.59;99593.19;4992288;28;20089;-68
2023/02/01 03:05:34;;;;;;;8.48;6.63;;;;;;;0.89;74.56;99580.69;4975657;28;20076;-70
2023/02/01 03:08:11;;;;;;;9.80;6.93;;;;;;;0.81;75.11;99589.44;4975482;28;20458;-71
2023/02/01 03:10:59;;;;;;;12.50;8.07;;;;;;;0.64;76.58;99593.22;4974120;28;20035;-71
2023/02/01 03:13:36;;;;;;;15.32;9.15;;;;;;;0.49;77.35;99590.38;4975306;28;20058;-70
2023/02/01 03:16:28;;;;;;;10.73;7.35;;;;;;;0.34;78.24;99591.91;4975524;28;20132;-70
2023/02/01 03:19:14;;;;;;;10.55;7.20;;;;;;;0.17;79.54;99585.72;4975328;28;20031;-70
2023/02/01 03:21:45;;;;;;;11.05;7.95;;;;;;;0.15;79.89;99591.47;4989060;28;20082;-70
2023/02/01 03:24:32;;;;;;;13.70;8.13;;;;;;;0.08;80.34;99599.97;4993306;28;20030;-71
2023/02/01 03:27:04;;;;;;;13.95;8.77;;;;;;;0.15;80.22;99593.44;4994673;28;20117;-70
2023/02/01 03:29:37;;;;;;;17.00;9.35;;;;;;;0.35;78.98;99593.56;4994524;28;20037;-70
2023/02/01 03:32:03;;;;;;;17.58;9.50;;;;;;;0.46;78.49;99590.88;4992416;28;20473;-70
2023/02/01 03:34:29;;;;;;;14.95;8.05;;;;;;;0.61;77.21;99590.16;4974895;28;20033;-70
2023/02/01 03:37:02;;;;;;;15.20;10.98;;;;;;;0.71;76.15;99595.75;4973622;28;20031;-70
2023/02/01 03:39:34;;;;;;;13.88;9.02;;;;;;;0.75;75.42;99591.34;4972817;28;20126;-70
2023/02/01 03:42:04;;;;;;;11.48;6.95;;;;;;;0.83;74.46;99603.78;4983277;28;20037;-70
2023/02/01 03:44:34;;;;;;;11.85;6.78;;;;;;;0.91;73.67;99597.78;4974671;28;20030;-70
2023/02/01 03:47:09;;;;;;;9.07;7.28;;;;;;;0.98;72.76;99592.03;4984536;28;20108;-71
2023/02/01 03:49:49;;;;;;;10.93;7.07;;;;;;;1.03;72.50;99593.97;4992866;28;20122;-71
2023/02/01 03:52:20;;;;;;;13.80;7.50;;;;;;;0.97;72.87;99593.13;4994080;28;20608;-71
2023/02/01 03:54:46;;;;;;;9.18;7.88;;;;;;;0.88;72.91;99597.47;4987413;28;20035;-71
2023/02/01 03:57:16;;;;;;;11.13;8.20;;;;;;;0.82;73.17;99607.63;4974720;28;20481;-71
2023/02/01 03:59:44;;;;;;;11.65;8.68;;;;;;;0.76;73.26;99593.00;4975325;28;20031;-70
2023/02/01 04:02:10;;;;;;;13.98;9.88;;;;;;;0.76;73.33;99606.78;4992133;28;20041;-71
2023/02/01 04:04:36;;;;;;;12.50;9.18;;;;;;;0.74;72.97;99622.72;4992004;28;20113;-71
2023/02/01 04:07:02;;;;;;;13.85;11.25;;;;;;;0.81;72.98;99617.84;4986790;28;20478;-71
2023/02/01 04:09:27;;;;;;;19.05;12.20;;;;;;;0.73;72.82;99617.50;4972483;28;20031;-71
2023/02/01 04:11:53;;;;;;;17.23;11.68;;;;;;;0.77;72.48;99629.66;4973783;28;20039;-71
2023/02/01 04:14:18;;;;;;;10.13;8.25;;;;;;;0.81;72.09;99625.25;4982777;28;20574;-71
2023/02/01 04:16:45;;;;;;;12.18;8.85;;;;;;;0.81;71.54;99628.84;4993114;28;20038;-71
2023/02/01 04:19:10;;;;;;;16.33;9.95;;;;;;;0.76;71.19;99628.00;4985922;28;20181;-71
2023/02/01 04:21:36;;;;;;;13.02;9.48;;;;;;;0.59;72.36;99625.41;4972489;28;20109;-71
2023/02/01 04:24:02;;;;;;;13.32;9.45;;;;;;;0.60;72.56;99625.13;4972512;28;20512;-71
2023/02/01 04:26:27;;;;;;;9.43;7.80;;;;;;;0.49;71.77;99631.66;4972332;28;20034;-71
2023/02/01 04:28:53;;;;;;;16.08;8.50;;;;;;;0.54;71.81;99635.28;4973607;28;20042;-71
2023/02/01 04:31:25;;;;;;;10.95;8.18;;;;;;;0.63;70.11;99632.88;4982896;28;20357;-71
2023/02/01 04:33:55;;;;;;;11.13;7.10;;;;;;;0.82;68.70;99630.50;4992980;28;20390;-71
2023/02/01 04:36:21;;;;;;;10.60;7.10;;;;;;;0.93;68.00;99625.88;4990630;28;20481;-71
2023/02/01 04:38:48;;;;;;;12.95;6.72;;;;;;;1.19;65.84;99620.47;4992445;28;20089;-71
2023/02/01 04:41:15;;;;;;;15.45;7.13;;;;;;;1.25;65.57;99624.09;4989048;28;20033;-71
2023/02/01 04:43:40;;;;;;;14.80;6.65;;;;;;;1.25;66.20;99622.19;4980754;28;20107;-72
2023/02/01 04:46:06;;;;;;;8.07;5.95;;;;;;;1.53;63.57;99630.28;4987753;28;20062;-71
2023/02/01 04:48:31;;;;;;;10.55;5.47;;;;;;;1.62;62.80;99638.84;4982121;28;20045;-71
2023/02/01 04:50:57;;;;;;;12.93;6.82;;;;;;;1.67;63.00;99636.94;4977493;28;20033;-71
2023/02/01 04:53:22;;;;;;;14.25;6.22;;;;;;;1.60;62.69;99627.25;4973428;28;20035;-71
2023/02/01 04:55:49;;;;;;;8.88;5.78;;;;;;;1.52;64.25;99632.19;4986144;28;20141;-71
2023/02/01 04:58:14;;;;;;;12.23;6.85;;;;;;;1.48;64.55;99631.09;4991221;28;20413;-71
2023/02/01 05:00:40;;;;;;;10.23;5.85;;;;;;;1.46;64.64;99632.44;4990963;28;20026;-71
2023/02/01 05:03:05;;;;;;;12.63;7.13;;;;;;;1.42;64.99;99634.09;4991091;28;20037;-71
2023/02/01 05:05:31;;;;;;;13.52;7.95;;;;;;;1.32;66.28;99640.38;4991772;28;20474;-71
2023/02/01 05:07:57;;;;;;;16.65;7.97;;;;;;;1.30;67.46;99645.34;4989492;28;20085;-71
2023/02/01 05:10:23;;;;;;;14.50;7.75;;;;;;;1.42;66.64;99640.44;4992217;28;20061;-71
2023/02/01 05:15:32;;;;;;;46.10;18.02;;;;;;;1.38;66.09;99647.59;4991415;28;20420;-71
2023/02/01 05:17:58;;;;;;;66.50;28.02;;;;;;;1.63;65.41;99648.78;4991069;28;20018;-71
2023/02/01 05:20:24;;;;;;;37.05;18.10;;;;;;;1.59;64.96;99639.41;4991629;28;20076;-72
2023/02/01 05:22:50;;;;;;;19.17;9.18;;;;;;;1.58;64.79;99641.31;4992084;28;20528;-71
2023/02/01 05:25:15;;;;;;;11.23;7.47;;;;;;;1.67;64.52;99633.34;4990672;28;20022;-71
2023/02/01 05:27:41;;;;;;;16.75;7.93;;;;;;;1.63;64.35;99637.75;4992183;28;20023;-71
2023/02/01 05:30:07;;;;;;;30.77;14.27;;;;;;;1.76;64.43;99642.75;4991953;28;20105;-71
2023/02/01 05:32:32;;;;;;;80.75;32.97;;;;;;;1.82;64.18;99635.31;4978325;28;20026;-71
2023/02/01 05:34:58;;;;;;;51.63;20.33;;;;;;;1.82;63.95;99633.41;4991841;28;20030;-71
2023/02/01 05:37:24;;;;;;;32.05;13.57;;;;;;;1.69;64.15;99631.16;4990714;28;20088;-71
2023/02/01 05:39:49;;;;;;;29.48;13.23;;;;;;;1.75;64.59;99620.94;4991763;28;20492;-71
2023/02/01 05:42:15;;;;;;;28.80;14.50;;;;;;;1.68;64.29;99630.31;4986646;28;20034;-71
2023/02/01 05:44:40;;;;;;;23.27;12.43;;;;;;;1.66;64.26;99631.69;4991782;28;20034;-71
2023/02/01 05:47:06;;;;;;;16.52;9.38;;;;;;;1.68;64.20;99613.78;4977325;28;20050;-71
2023/02/01 05:49:32;;;;;;;13.50;6.13;;;;;;;1.68;63.86;99627.56;4972463;28;20027;-71
2023/02/01 05:51:57;;;;;;;10.85;7.00;;;;;;;1.64;63.46;99631.97;4972751;28;20033;-71
2023/02/01 05:54:22;;;;;;;15.30;9.05;;;;;;;1.62;63.30;99625.88;4985811;28;20057;-71
2023/02/01 05:56:48;;;;;;;12.48;8.40;;;;;;;1.66;62.37;99628.91;4991789;28;20026;-71
2023/02/01 05:59:13;;;;;;;14.30;8.50;;;;;;;1.66;62.71;99627.00;4991772;28;20080;-71
2023/02/01 06:01:39;;;;;;;9.27;7.28;;;;;;;1.68;62.23;99635.84;4975730;28;20038;-71
2023/02/01 06:04:04;;;;;;;16.42;9.52;;;;;;;1.72;62.21;99632.53;4986517;28;20030;-71
2023/02/01 06:06:30;;;;;;;12.07;7.97;;;;;;;1.74;62.18;99639.44;4995626;28;20027;-71
2023/02/01 06:08:55;;;;;;;15.18;8.88;;;;;;;1.84;61.60;99646.91;4995251;28;20053;-70
2023/02/01 06:11:21;;;;;;;12.60;6.68;;;;;;;1.89;61.59;99646.09;4989851;28;20031;-71
2023/02/01 06:13:46;;;;;;;11.32;6.05;;;;;;;1.93;60.50;99647.19;4976573;28;20465;-70
2023/02/01 06:16:15;;;;;;;9.90;5.28;;;;;;;1.99;59.28;99643.34;4981213;28;20109;-70
2023/02/01 06:18:41;;;;;;;16.77;6.35;;;;;;;2.05;58.14;99639.50;4990492;28;20401;-71
2023/02/01 06:21:07;;;;;;;16.85;6.05;;;;;;;2.18;57.63;99637.31;5013634;28;20409;-71
2023/02/01 06:23:33;;;;;;;12.35;5.60;;;;;;;2.36;56.00;99647.78;5014870;28;20022;-72
2023/02/01 06:26:02;;;;;;;11.20;5.57;;;;;;;2.39;56.51;99646.41;4983929;28;20157;-72
2023/02/01 06:28:29;;;;;;;8.95;4.57;;;;;;;2.52;55.09;99642.25;4979942;28;20039;-71
2023/02/01 06:30:55;;;;;;;8.30;4.38;;;;;;;2.58;54.98;99654.97;4992937;28;20038;-72
2023/02/01 06:33:20;;;;;;;12.75;6.47;;;;;;;2.49;55.87;99648.34;4994998;28;20022;-69
2023/02/01 06:35:47;;;;;;;6.68;4.60;;;;;;;2.62;54.25;99663.53;4985049;28;20096;-69
2023/02/01 06:38:13;;;;;;;33.33;6.38;;;;;;;2.60;54.95;99649.19;4991227;28;20037;-72
2023/02/01 06:40:40;;;;;;;10.30;7.63;;;;;;;2.61;55.35;99654.41;4990568;28;20121;-70
2023/02/01 06:43:06;;;;;;;15.25;6.95;;;;;;;2.53;55.45;99649.44;4982504;28;20030;-70
2023/02/01 06:45:32;;;;;;;9.35;6.22;;;;;;;2.52;56.53;99645.84;4989860;28;20057;-70
2023/02/01 06:48:00;;;;;;;15.32;6.10;;;;;;;2.46;56.69;99655.22;4980035;28;20129;-71
2023/02/01 06:50:26;;;;;;;13.35;7.13;;;;;;;2.43;56.84;99660.50;4992599;28;20524;-71
2023/02/01 06:52:51;;;;;;;12.30;8.82;;;;;;;2.43;56.45;99661.31;4979822;28;20045;-71
2023/02/01 06:55:17;;;;;;;17.15;8.77;;;;;;;2.44;56.16;99662.97;4972922;28;20031;-70
2023/02/01 06:57:42;;;;;;;12.55;8.38;;;;;;;2.44;56.22;99662.16;4988625;28;20591;-70
2023/02/01 07:00:09;;;;;;;12.70;8.77;;;;;;;2.44;57.41;99671.25;4988279;28;20441;-70
2023/02/01 07:02:34;;;;;;;22.42;12.77;;;;;;;2.35;57.45;99664.63;4988935;28;20137;-70
2023/02/01 07:05:00;;;;;;;23.65;13.93;;;;;;;2.35;57.71;99668.22;4982416;28;20045;-72
2023/02/01 07:07:25;;;;;;;16.67;8.52;;;;;;;2.29;57.98;99665.72;4973246;28;20031;-70
2023/02/01 07:09:51;;;;;;;16.50;10.48;;;;;;;2.26;58.80;99664.34;4974170;28;20045;-71
2023/02/01 07:12:16;;;;;;;11.50;6.10;;;;;;;2.26;59.09;99660.78;4978786;28;20041;-70
2023/02/01 07:14:42;;;;;;;14.00;7.10;;;;;;;2.30;59.40;99671.00;4998679;28;20034;-70
2023/02/01 07:17:07;;;;;;;20.98;9.82;;;;;;;2.32;59.85;99674.31;4984906;28;20031;-68
2023/02/01 07:19:33;;;;;;;17.48;7.97;;;;;;;2.27;60.69;99690.84;4976222;28;20110;-70
2023/02/01 07:21:58;;;;;;;23.00;12.20;;;;;;;2.25;60.42;99679.25;4980241;28;20511;-70
2023/02/01 07:24:24;;;;;;;22.77;11.15;;;;;;;2.28;60.54;99681.44;4991661;28;20101;-70
2023/02/01 07:26:50;;;;;;;18.73;11.38;;;;;;;2.38;60.42;99683.41;4974807;28;20081;-70
2023/02/01 07:29:17;;;;;;;17.88;9.25;;;;;;;2.42;59.80;99676.22;4972191;28;20045;-71
2023/02/01 07:31:43;;;;;;;23.65;9.32;;;;;;;2.52;59.84;99692.81;4976426;28;20034;-70
2023/02/01 07:34:08;;;;;;;16.23;8.82;;;;;;;2.62;58.37;99691.97;4988066;28;20655;-70
2023/02/01 07:36:36;;;;;;;13.52;8.80;;;;;;;2.68;58.60;99684.50;4991595;28;20065;-71
2023/02/01 07:39:03;;;;;;;29.95;14.35;;;;;;;2.86;59.06;99688.63;4976803;28;20026;-71
2023/02/01 07:41:28;;;;;;;35.20;17.10;;;;;;;2.84;59.60;99690.84;4984559;28;20030;-71
2023/02/01 07:43:54;;;;;;;39.28;19.40;;;;;;;2.93;59.16;99703.00;4986171;28;20910;-70
2023/02/01 07:46:20;;;;;;;28.98;16.90;;;;;;;2.89;59.79;99699.13;5001395;28;20063;-71
2023/02/01 07:48:45;;;;;;;35.70;18.08;;;;;;;3.00;59.25;99707.41;4970810;28;20089;-69
2023/02/01 07:51:13;;;;;;;35.15;17.35;;;;;;;3.07;59.21;99706.00;4990210;28;20027;-70
2023/02/01 07:53:39;;;;;;;38.75;18.88;;;;;;;3.10;59.28;99701.88;4991453;28;20504;-69
2023/02/01 07:56:12;;;;;;;33.90;17.95;;;;;;;3.17;59.29;99707.94;4989747;28;20477;-68
2023/02/01 07:58:37;;;;;;;42.58;18.35;;;;;;;3.21;58.95;99697.97;4987607;28;20493;-70
2023/02/01 08:01:21;;;;;;;40.13;20.80;;;;;;;3.27;59.32;99704.31;4983743;28;20061;-71
2023/02/01 08:04:13;;;;;;;31.80;16.25;;;;;;;3.36;58.07;99699.03;4987366;28;20042;-71
2023/02/01 08:06:39;;;;;;;40.83;16.73;;;;;;;3.30;57.84;99700.16;4975164;28;20034;-70
2023/02/01 08:09:06;;;;;;;31.90;15.07;;;;;;;3.28;58.12;99702.41;4979288;28;20033;-71
2023/02/01 08:11:31;;;;;;;32.58;14.38;;;;;;;3.34;57.83;99701.25;4987847;28;20097;-72
2023/02/01 08:13:58;;;;;;;38.45;17.05;;;;;;;3.39;58.63;99692.97;4982947;28;20547;-70
2023/02/01 08:16:24;;;;;;;42.30;19.55;;;;;;;3.41;58.24;99714.78;4977838;28;20027;-70
2023/02/01 08:18:49;;;;;;;34.75;17.40;;;;;;;3.42;58.93;99705.38;4974554;28;20042;-71
2023/02/01 08:21:21;;;;;;;47.53;23.20;;;;;;;3.51;58.96;99717.53;4989567;28;20038;-72
2023/02/01 08:23:48;;;;;;;51.70;23.02;;;;;;;3.53;58.98;99709.78;4997134;28;20117;-70
2023/02/01 08:26:17;;;;;;;30.73;13.38;;;;;;;3.60;57.18;99706.69;4990829;28;20045;-71
2023/02/01 08:28:55;;;;;;;17.52;9.70;;;;;;;3.78;57.40;99716.31;4976420;28;20164;-72
2023/02/01 08:31:22;;;;;;;33.03;12.88;;;;;;;3.71;57.29;99713.03;4987574;28;20110;-73
2023/02/01 08:33:54;;;;;;;45.33;19.80;;;;;;;3.85;56.71;99716.00;4969840;28;20042;-72
2023/02/01 08:36:20;;;;;;;21.38;9.85;;;;;;;4.00;56.18;99712.34;4986333;28;20401;-73
2023/02/01 08:38:46;;;;;;;32.15;24.17;;;;;;;4.13;55.08;99721.97;4985991;28;20026;-71
2023/02/01 08:41:14;;;;;;;40.50;13.63;;;;;;;4.16;55.40;99725.00;4971044;28;20085;-72
2023/02/01 08:43:42;;;;;;;45.50;16.88;;;;;;;4.19;56.38;99721.66;4969846;28;20054;-72
2023/02/01 08:46:08;;;;;;;31.65;14.38;;;;;;;4.35;55.37;99714.06;4977195;28;20506;-70
2023/02/01 08:48:34;;;;;;;33.88;14.25;;;;;;;4.32;56.03;99714.63;4986712;28;20045;-71
2023/02/01 08:51:11;;;;;;;39.72;16.95;;;;;;;4.40;56.24;99704.88;4978504;28;20468;-71
2023/02/01 08:53:38;;;;;;;39.80;17.33;;;;;;;4.50;57.28;99709.53;4990537;28;20034;-70
2023/02/01 08:56:04;;;;;;;23.40;11.50;;;;;;;4.51;57.23;99711.19;4981095;28;20034;-70
2023/02/01 08:58:30;;;;;;;36.30;16.65;;;;;;;4.63;57.73;99710.81;4983408;28;20409;-70
2023/02/01 09:00:55;;;;;;;24.60;12.68;;;;;;;4.78;58.18;99704.31;4990433;28;20037;-71
2023/02/01 09:03:21;;;;;;;24.17;13.45;;;;;;;4.98;55.49;99694.16;4988259;28;20023;-71
2023/02/01 09:05:47;;;;;;;13.85;7.53;;;;;;;5.11;55.18;99693.47;4979352;28;20026;-70
2023/02/01 09:08:14;;;;;;;11.55;8.15;;;;;;;5.31;54.99;99694.38;4996726;28;20154;-70
2023/02/01 09:10:41;;;;;;;8.98;5.50;;;;;;;5.44;52.52;99688.13;4986827;28;20548;-69
2023/02/01 09:13:07;;;;;;;8.25;5.57;;;;;;;5.58;51.82;99692.97;4982568;28;20030;-69
2023/02/01 09:15:33;;;;;;;38.33;6.72;;;;;;;5.48;52.08;99683.63;4988821;28;20041;-68
2023/02/01 09:17:59;;;;;;;18.48;5.07;;;;;;;5.36;51.31;99691.56;4990347;28;20369;-69
2023/02/01 09:20:25;;;;;;;17.27;6.10;;;;;;;5.29;52.85;99686.34;4981258;28;20038;-69
2023/02/01 09:22:52;;;;;;;9.40;5.78;;;;;;;5.17;52.10;99689.50;4988089;28;20737;-68
2023/02/01 09:25:18;;;;;;;15.52;5.93;;;;;;;5.12;52.12;99692.34;4972123;28;20026;-68
2023/02/01 09:27:44;;;;;;;14.13;6.65;;;;;;;5.04;52.33;99681.88;4975858;28;20030;-69
2023/02/01 09:30:13;;;;;;;6.40;5.07;;;;;;;5.05;52.73;99678.00;4973146;28;20038;-69
2023/02/01 09:32:38;;;;;;;26.00;6.55;;;;;;;4.98;52.39;99681.13;4968060;28;20018;-69
2023/02/01 09:35:04;;;;;;;11.35;6.03;;;;;;;4.94;53.60;99673.66;4987725;28;20489;-70
2023/02/01 09:37:30;;;;;;;8.05;5.30;;;;;;;4.97;53.14;99675.88;4989213;28;20026;-69
2023/02/01 09:39:56;;;;;;;12.07;6.18;;;;;;;4.96;54.06;99671.47;4990269;28;20045;-69
2023/02/01 09:42:58;;;;;;;11.75;7.25;;;;;;;4.91;53.99;99670.38;4990212;28;20413;-69
2023/02/01 09:45:44;;;;;;;9.43;5.05;;;;;;;4.92;54.24;99665.66;4984066;28;20755;-69
2023/02/01 09:48:19;;;;;;;11.05;4.43;;;;;;;5.11;52.32;99660.19;4988205;28;20381;-69
2023/02/01 09:50:50;;;;;;;7.38;4.45;;;;;;;5.24;51.70;99658.66;4986650;28;20533;-67
2023/02/01 09:53:20;;;;;;;8.30;5.70;;;;;;;5.26;51.38;99648.13;4979706;28;20413;-68
2023/02/01 09:55:49;;;;;;;9.27;5.35;;;;;;;5.27;51.96;99662.78;4980458;28;20027;-70
2023/02/01 09:58:18;;;;;;;14.45;6.07;;;;;;;5.33;50.88;99640.25;4969767;28;20023;-74
2023/02/01 10:00:55;;;;;;;11.55;3.80;;;;;;;5.31;51.33;99661.09;4970540;28;20031;-73
2023/02/01 10:03:24;;;;;;;11.07;5.93;;;;;;;5.37;51.30;99664.63;4970862;28;20027;-74
2023/02/01 10:06:24;;;;;;;17.58;8.50;;;;;;;5.51;52.49;99660.03;4978443;28;20168;-70
2023/02/01 10:09:00;;;;;;;;;;;;;;;5.60;51.75;99654.63;4960430;28;20042;-70
2023/02/01 10:11:48;;;;;;;14.48;7.90;;;;;;;5.67;51.96;99665.38;4989054;28;19925;-69
2023/02/01 10:14:40;;;;;;;22.25;11.82;;;;;;;5.66;51.99;99658.97;4983907;28;20053;-70
2023/02/01 10:17:43;;;;;;;7.70;6.80;;;;;;;5.77;52.10;99637.50;4989290;28;20063;-73
2023/02/01 10:20:30;;;;;;;12.73;5.30;;;;;;;6.08;49.99;99637.06;4984859;28;20025;-73
2023/02/01 10:23:10;;;;;;;16.45;9.82;;;;;;;6.64;50.43;99640.06;4973556;28;20034;-73
2023/02/01 10:26:05;;;;;;;;;;;;;;;6.70;49.11;99640.81;4973739;28;20037;-72
2023/02/01 10:28:34;;;;;;;8.55;4.38;;;;;;;6.75;48.03;99643.47;4976549;28;19957;-72
2023/02/01 10:31:01;;;;;;;5.93;4.47;;;;;;;6.82;48.08;99632.00;4988883;28;20117;-71
2023/02/01 10:33:56;;;;;;;12.73;5.50;;;;;;;7.25;47.73;99639.25;4985737;28;20188;-71
2023/02/01 10:36:25;;;;;;;16.48;8.23;;;;;;;7.30;47.25;99639.97;4978503;28;20030;-71
2023/02/01 10:38:50;;;;;;;21.75;6.88;;;;;;;7.81;48.35;99637.25;4989253;28;20530;-72
2023/02/01 10:41:23;;;;;;;22.02;7.38;;;;;;;7.71;46.84;99627.13;4988988;28;20112;-73
2023/02/01 10:43:55;;;;;;;14.63;6.28;;;;;;;7.49;46.57;99625.13;4988409;28;20569;-71
2023/02/01 10:46:22;;;;;;;9.20;4.75;;;;;;;7.41;47.07;99618.31;4976181;28;20078;-71
2023/02/01 10:48:50;;;;;;;11.20;5.57;;;;;;;7.24;46.45;99618.94;4970632;28;20031;-71
2023/02/01 10:51:43;;;;;;;42.13;17.13;;;;;;;7.35;46.52;99619.53;4984940;28;20058;-71
2023/02/01 10:54:21;;;;;;;10.25;6.53;;;;;;;7.38;46.29;99607.81;4991153;28;20037;-71
2023/02/01 10:56:49;;;;;;;14.00;7.95;;;;;;;7.63;46.96;99602.84;4982757;28;20057;-72
2023/02/01 10:59:17;;;;;;;8.90;5.63;;;;;;;7.87;46.10;99598.97;4992247;28;20093;-71
2023/02/01 11:01:46;;;;;;;13.95;6.18;;;;;;;7.66;45.63;99587.44;4990703;28;20034;-71
2023/02/01 11:04:16;;;;;;;11.77;4.43;;;;;;;7.97;46.37;99582.03;4991893;28;20579;-71
2023/02/01 11:06:49;;;;;;;8.68;4.60;;;;;;;7.61;45.51;99580.06;4990252;28;20041;-71
2023/02/01 11:09:14;;;;;;;6.18;4.43;;;;;;;7.70;45.38;99561.44;4979649;28;20137;-72
2023/02/01 11:11:48;;;;;;;31.80;7.40;;;;;;;7.82;45.72;99557.28;4982956;28;21861;-71
2023/02/01 11:14:18;;;;;;;5.97;4.60;;;;;;;7.61;46.76;99566.13;4991492;28;20034;-71
2023/02/01 11:16:49;;;;;;;7.18;4.75;;;;;;;7.56;45.83;99563.44;4992875;28;20065;-71
2023/02/01 11:19:17;;;;;;;7.30;5.82;;;;;;;7.10;46.90;99556.91;4991605;28;20092;-71
2023/02/01 11:21:44;;;;;;;11.13;4.82;;;;;;;7.18;46.06;99563.72;4992337;28;20036;-71
2023/02/01 11:24:28;;;;;;;3.75;2.75;;;;;;;7.44;45.09;99552.88;4992798;28;20038;-71
2023/02/01 11:27:00;;;;;;;16.63;4.55;;;;;;;7.54;45.33;99557.38;4988711;28;20049;-71
2023/02/01 11:29:31;;;;;;;7.50;3.28;;;;;;;7.58;45.39;99545.31;4982374;28;20125;-71
2023/02/01 11:31:59;;;;;;;6.65;4.30;;;;;;;7.73;45.02;99535.78;4984207;28;20122;-71
2023/02/01 11:34:31;;;;;;;11.45;6.55;;;;;;;7.94;44.76;99534.47;4975705;28;20481;-71
2023/02/01 11:37:00;;;;;;;7.65;5.53;;;;;;;8.14;45.73;99544.28;4991986;28;20125;-71
2023/02/01 11:39:33;;;;;;;8.05;3.33;;;;;;;7.90;44.02;99573.25;4981945;28;20561;-71
2023/02/01 11:42:12;;;;;;;8.38;4.95;;;;;;;7.87;44.51;99544.06;4980131;28;20088;-71
2023/02/01 11:44:40;;;;;;;13.52;6.70;;;;;;;7.90;45.43;99548.19;4992192;28;20030;-71
2023/02/01 11:47:37;;;;;;;8.57;5.53;;;;;;;8.04;43.85;99552.88;4993064;28;20104;-71
2023/02/01 11:50:20;;;;;;;5.93;3.53;;;;;;;8.11;44.64;99548.53;4990676;28;20077;-71
2023/02/01 11:52:58;;;;;;;6.65;4.95;;;;;;;8.40;45.62;99550.03;4993463;28;20409;-71
2023/02/01 11:55:35;;;;;;;8.15;3.33;;;;;;;8.48;44.91;99554.03;4989989;28;20497;-71
2023/02/01 11:58:19;;;;;;;12.13;3.58;;;;;;;8.50;45.02;99551.75;4974396;28;20501;-71
2023/02/01 12:01:10;;;;;;;4.65;3.13;;;;;;;8.34;45.27;99553.28;4987758;28;20042;-71
2023/02/01 12:04:00;;;;;;;6.18;2.83;;;;;;;8.08;44.68;99540.81;4993154;28;20033;-71
2023/02/01 12:06:43;;;;;;;8.57;3.03;;;;;;;8.05;44.32;99544.22;4976991;28;20030;-71
2023/02/01 12:09:34;;;;;;;5.00;3.05;;;;;;;8.17;44.46;99534.47;4988837;28;20387;-71
2023/02/01 12:12:16;;;;;;;4.55;2.75;;;;;;;8.24;43.96;99540.41;4982910;28;20066;-71
2023/02/01 12:14:54;;;;;;;5.20;3.55;;;;;;;8.40;43.03;99552.84;4991086;28;20113;-71